createdAt,value
2018-07-30T00:00:37.383Z,5.67
2018-07-30T00:03:11.543Z,6.45
2018-07-30T00:05:45.716Z,6.33
2018-07-30T00:08:19.688Z,5.50
2018-07-30T00:10:54.347Z,6.17
2018-07-30T00:13:28.283Z,5.62
2018-07-30T00:16:02.357Z,5.25
2018-07-30T00:18:36.826Z,5.33
2018-07-30T00:21:10.904Z,4.58
2018-07-30T00:23:44.767Z,4.95
2018-07-30T00:26:18.604Z,4.87
2018-07-30T00:28:52.434Z,4.90
2018-07-30T00:31:26.838Z,4.90
2018-07-30T00:34:00.979Z,4.53
2018-07-30T00:36:35.092Z,4.83
2018-07-30T00:39:10.597Z,5.22
2018-07-30T00:41:44.446Z,5.65
2018-07-30T00:44:18.746Z,4.70
2018-07-30T00:46:52.668Z,5.47
2018-07-30T00:49:26.674Z,5.53
2018-07-30T00:52:00.931Z,5.53
2018-07-30T00:54:34.826Z,4.95
2018-07-30T00:57:08.876Z,4.42
2018-07-30T00:59:42.778Z,4.90
2018-07-30T01:02:16.741Z,5.03
2018-07-30T01:04:50.947Z,5.03
2018-07-30T01:07:25.106Z,4.55
2018-07-30T01:09:58.745Z,4.30
2018-07-30T01:12:32.851Z,6.28
2018-07-30T01:15:07.276Z,4.60
2018-07-30T01:17:41.387Z,4.28
2018-07-30T01:20:15.435Z,5.00
2018-07-30T01:22:49.305Z,4.35
2018-07-30T01:25:23.103Z,4.60
2018-07-30T01:27:57.115Z,4.70
2018-07-30T01:30:30.927Z,7.65
2018-07-30T01:33:04.938Z,5.58
2018-07-30T01:35:39.328Z,5.20
2018-07-30T01:38:13.243Z,4.70
2018-07-30T01:40:47.213Z,5.20
2018-07-30T01:43:21.150Z,4.50
2018-07-30T01:45:55.256Z,4.40
2018-07-30T01:48:29.422Z,4.05
2018-07-30T01:51:03.464Z,4.33
2018-07-30T01:53:37.426Z,5.58
2018-07-30T01:56:11.492Z,4.15
2018-07-30T01:58:45.486Z,4.65
2018-07-30T02:01:19.642Z,4.62
2018-07-30T02:03:53.908Z,3.90
2018-07-30T02:06:27.891Z,4.45
2018-07-30T02:09:02.002Z,5.08
2018-07-30T02:11:35.706Z,3.50
2018-07-30T02:14:09.934Z,4.10
2018-07-30T02:16:43.894Z,6.53
2018-07-30T02:19:17.787Z,4.42
2018-07-30T02:21:51.726Z,4.37
2018-07-30T02:24:25.672Z,3.65
2018-07-30T02:26:59.863Z,4.00
2018-07-30T02:29:33.977Z,3.65
2018-07-30T02:32:07.983Z,4.22
2018-07-30T02:34:42.703Z,5.62
2018-07-30T02:37:17.108Z,4.08
2018-07-30T02:39:51.022Z,6.50
2018-07-30T02:42:25.017Z,8.13
2018-07-30T02:44:59.143Z,5.28
2018-07-30T02:47:32.944Z,5.10
2018-07-30T02:50:07.202Z,5.90
2018-07-30T02:52:41.351Z,5.42
2018-07-30T02:55:15.467Z,5.15
2018-07-30T02:57:49.181Z,4.67
2018-07-30T03:00:23.103Z,5.08
2018-07-30T03:02:57.254Z,4.60
2018-07-30T03:05:31.446Z,5.20
2018-07-30T03:08:05.222Z,4.72
2018-07-30T03:10:39.827Z,4.37
2018-07-30T03:13:13.917Z,5.72
2018-07-30T03:15:48.223Z,6.78
2018-07-30T03:18:22.458Z,4.70
2018-07-30T03:20:56.274Z,6.00
2018-07-30T03:23:30.401Z,5.75
2018-07-30T03:26:04.242Z,5.03
2018-07-30T03:28:38.574Z,7.12
2018-07-30T03:31:12.778Z,4.92
2018-07-30T03:33:46.934Z,4.92
2018-07-30T03:36:20.906Z,4.80
2018-07-30T03:38:54.889Z,7.20
2018-07-30T03:41:28.978Z,7.83
2018-07-30T03:44:03.054Z,5.25
2018-07-30T03:46:37.053Z,5.45
2018-07-30T03:49:11.103Z,5.47
2018-07-30T03:51:45.328Z,4.97
2018-07-30T03:54:19.183Z,4.65
2018-07-30T03:56:53.307Z,4.53
2018-07-30T03:59:27.111Z,5.33
2018-07-30T04:02:01.041Z,4.92
2018-07-30T04:04:35.068Z,6.08
2018-07-30T04:07:08.904Z,4.25
2018-07-30T04:09:42.792Z,4.85
2018-07-30T04:12:16.849Z,5.60
2018-07-30T04:14:51.071Z,5.00
2018-07-30T04:17:25.587Z,4.20
2018-07-30T04:19:59.828Z,4.85
2018-07-30T04:22:33.909Z,5.80
2018-07-30T04:25:07.982Z,5.08
2018-07-30T04:27:42.610Z,5.08
2018-07-30T04:30:16.551Z,4.55
2018-07-30T04:32:50.701Z,5.85
2018-07-30T04:35:24.827Z,5.28
2018-07-30T04:37:58.737Z,4.72
2018-07-30T04:40:32.626Z,5.12
2018-07-30T04:43:06.713Z,3.95
2018-07-30T04:45:40.621Z,4.42
2018-07-30T04:48:14.526Z,4.78
2018-07-30T04:50:48.769Z,5.67
2018-07-30T04:53:22.621Z,4.65
2018-07-30T04:55:56.728Z,7.58
2018-07-30T04:58:30.582Z,5.67
2018-07-30T05:01:04.706Z,6.37
2018-07-30T05:03:38.868Z,5.87
2018-07-30T05:06:12.718Z,4.33
2018-07-30T05:08:46.727Z,8.10
2018-07-30T05:11:20.825Z,4.80
2018-07-30T05:13:54.803Z,5.30
2018-07-30T05:16:28.677Z,4.35
2018-07-30T05:19:02.482Z,5.12
2018-07-30T05:21:36.409Z,4.17
2018-07-30T05:24:10.327Z,3.67
2018-07-30T05:26:44.403Z,4.22
2018-07-30T05:29:18.343Z,4.50
2018-07-30T05:31:52.254Z,7.20
2018-07-30T05:34:26.412Z,4.47
2018-07-30T05:37:00.385Z,5.37
2018-07-30T05:39:34.217Z,5.37
2018-07-30T05:42:08.367Z,5.65
2018-07-30T05:44:42.455Z,5.28
2018-07-30T05:47:16.251Z,3.70
2018-07-30T05:49:50.384Z,4.03
2018-07-30T05:52:24.712Z,4.53
2018-07-30T05:54:58.488Z,6.20
2018-07-30T05:57:32.550Z,7.62
2018-07-30T06:00:06.925Z,5.78
2018-07-30T06:02:40.755Z,4.75
2018-07-30T06:05:14.913Z,3.87
2018-07-30T06:07:48.795Z,4.30
2018-07-30T06:10:22.890Z,4.70
2018-07-30T06:12:57.482Z,6.90
2018-07-30T06:15:31.658Z,6.70
2018-07-30T06:18:05.710Z,3.50
2018-07-30T06:20:39.702Z,4.85
2018-07-30T06:23:14.099Z,5.37
2018-07-30T06:25:48.048Z,6.15
2018-07-30T06:28:22.185Z,4.97
2018-07-30T06:30:56.342Z,4.17
2018-07-30T06:33:30.325Z,4.97
2018-07-30T06:36:04.393Z,5.08
2018-07-30T06:38:38.407Z,5.03
2018-07-30T06:41:12.382Z,4.80
2018-07-30T06:43:46.423Z,6.00
2018-07-30T06:46:20.501Z,5.55
2018-07-30T06:48:54.595Z,5.80
2018-07-30T06:51:28.574Z,6.22
2018-07-30T06:54:02.740Z,7.17
2018-07-30T06:56:36.564Z,6.87
2018-07-30T06:59:11.418Z,5.65
2018-07-30T07:01:45.608Z,4.75
2018-07-30T07:04:19.792Z,5.75
2018-07-30T07:06:53.753Z,5.33
2018-07-30T07:09:27.604Z,6.78
2018-07-30T07:12:01.899Z,4.65
2018-07-30T07:14:36.562Z,4.33
2018-07-30T07:17:10.588Z,4.20
2018-07-30T07:19:44.919Z,4.67
2018-07-30T07:22:18.759Z,6.75
2018-07-30T07:24:53.082Z,4.50
2018-07-30T07:27:27.075Z,6.08
2018-07-30T07:30:00.993Z,5.78
2018-07-30T07:32:34.776Z,5.08
2018-07-30T07:35:09.060Z,7.37
2018-07-30T07:37:43.238Z,3.80
2018-07-30T07:40:17.061Z,5.47
2018-07-30T07:42:51.044Z,5.53
2018-07-30T07:45:25.364Z,7.40
2018-07-30T07:47:59.247Z,4.85
2018-07-30T07:50:33.911Z,5.12
2018-07-30T07:53:08.203Z,5.72
2018-07-30T07:55:42.567Z,6.75
2018-07-30T07:58:17.225Z,4.90
2018-07-30T08:00:51.337Z,10.20
2018-07-30T08:03:25.883Z,7.60
2018-07-30T08:05:59.878Z,5.25
2018-07-30T08:08:33.929Z,5.37
2018-07-30T08:11:08.105Z,5.25
2018-07-30T08:13:42.179Z,8.45
2018-07-30T08:16:16.217Z,4.33
2018-07-30T08:18:51.449Z,4.65
2018-07-30T08:21:25.637Z,7.75
2018-07-30T08:23:59.573Z,7.03
2018-07-30T08:26:33.663Z,6.17
2018-07-30T08:29:07.823Z,5.70
2018-07-30T08:31:41.880Z,6.72
2018-07-30T08:34:15.842Z,8.25
2018-07-30T08:36:49.780Z,5.17
2018-07-30T08:39:23.658Z,6.20
2018-07-30T08:41:59.201Z,7.40
2018-07-30T08:44:33.203Z,5.83
2018-07-30T08:47:07.775Z,5.65
2018-07-30T08:49:41.809Z,4.17
2018-07-30T08:52:15.956Z,6.12
2018-07-30T08:54:49.953Z,4.97
2018-07-30T08:57:24.080Z,5.25
2018-07-30T08:59:57.837Z,7.40
2018-07-30T09:02:32.492Z,4.97
2018-07-30T09:05:06.401Z,6.42
2018-07-30T09:07:40.218Z,5.37
2018-07-30T09:10:14.408Z,9.78
2018-07-30T09:12:48.899Z,6.95
2018-07-30T09:15:22.847Z,4.22
2018-07-30T09:17:56.909Z,3.12
2018-07-30T09:20:31.069Z,3.58
2018-07-30T09:23:05.390Z,4.92
2018-07-30T09:25:39.968Z,4.62
2018-07-30T09:28:13.844Z,4.25
2018-07-30T09:30:47.991Z,6.90
2018-07-30T09:33:22.025Z,5.90
2018-07-30T09:35:56.360Z,5.00
2018-07-30T09:38:31.002Z,5.65
2018-07-30T09:41:05.011Z,3.62
2018-07-30T09:43:39.006Z,5.55
2018-07-30T09:46:13.002Z,4.45
2018-07-30T09:48:47.491Z,4.35
2018-07-30T09:51:21.547Z,3.75
2018-07-30T09:53:55.513Z,4.08
2018-07-30T09:56:30.287Z,5.37
2018-07-30T09:59:04.072Z,3.90
2018-07-30T10:01:38.188Z,6.58
2018-07-30T10:04:12.245Z,3.37
2018-07-30T10:06:46.461Z,3.95
2018-07-30T10:09:20.376Z,3.20
2018-07-30T10:11:55.898Z,5.28
2018-07-30T10:14:29.918Z,4.92
2018-07-30T10:17:03.932Z,4.00
2018-07-30T10:19:38.124Z,3.27
2018-07-30T10:22:12.393Z,4.53
2018-07-30T10:24:46.804Z,7.17
2018-07-30T10:27:21.856Z,3.72
2018-07-30T10:29:56.148Z,4.45
2018-07-30T10:32:30.130Z,5.00
2018-07-30T10:35:04.298Z,4.53
2018-07-30T10:37:41.988Z,4.17
2018-07-30T10:40:16.317Z,6.25
2018-07-30T10:42:50.540Z,7.80
2018-07-30T10:45:24.438Z,6.00
2018-07-30T10:47:58.397Z,4.33
2018-07-30T10:50:32.505Z,6.72
2018-07-30T10:53:07.341Z,4.45
2018-07-30T10:55:41.349Z,5.58
2018-07-30T10:58:15.558Z,5.80
2018-07-30T11:00:49.717Z,5.20
2018-07-30T11:03:23.752Z,4.15
2018-07-30T11:05:58.387Z,7.12
2018-07-30T11:08:32.394Z,4.67
2018-07-30T11:11:06.731Z,4.03
2018-07-30T11:13:41.054Z,7.03
2018-07-30T11:16:15.312Z,5.00
2018-07-30T11:18:49.176Z,5.12
2018-07-30T11:21:23.980Z,6.37
2018-07-30T11:23:57.924Z,4.03
2018-07-30T11:26:31.984Z,7.70
2018-07-30T11:29:06.127Z,5.95
2018-07-30T11:31:40.080Z,6.22
2018-07-30T11:34:14.126Z,4.42
2018-07-30T11:36:48.311Z,5.45
2018-07-30T11:39:22.252Z,5.28
2018-07-30T11:41:59.221Z,3.98
2018-07-30T11:44:33.131Z,3.45
2018-07-30T11:47:07.119Z,4.00
2018-07-30T11:49:41.162Z,4.78
2018-07-30T11:52:14.889Z,4.20
2018-07-30T11:54:48.809Z,3.98
2018-07-30T11:57:22.753Z,3.90
2018-07-30T11:59:56.848Z,5.03
2018-07-30T12:02:30.807Z,5.08
2018-07-30T12:05:05.109Z,4.17
2018-07-30T12:07:39.124Z,4.47
2018-07-30T12:10:13.179Z,4.47
2018-07-30T12:12:47.468Z,3.98
2018-07-30T12:15:21.672Z,4.92
2018-07-30T12:17:55.710Z,4.00
2018-07-30T12:20:29.926Z,5.12
2018-07-30T12:23:03.963Z,3.87
2018-07-30T12:25:38.102Z,14.35
2018-07-30T12:28:11.967Z,6.42
2018-07-30T12:30:46.035Z,4.90
2018-07-30T12:33:20.127Z,5.70
2018-07-30T12:35:54.622Z,5.47
2018-07-30T12:38:28.752Z,5.50
2018-07-30T12:41:02.739Z,4.05
2018-07-30T12:43:36.561Z,4.17
2018-07-30T12:46:10.315Z,9.58
2018-07-30T12:48:44.349Z,4.10
2018-07-30T12:51:18.368Z,5.97
2018-07-30T12:53:52.332Z,4.17
2018-07-30T12:56:26.288Z,3.95
2018-07-30T12:59:00.164Z,4.42
2018-07-30T13:01:34.212Z,8.25
2018-07-30T13:04:08.072Z,3.77
2018-07-30T13:06:42.144Z,5.35
2018-07-30T13:09:16.299Z,3.95
2018-07-30T13:11:50.623Z,4.55
2018-07-30T13:14:24.686Z,4.83
2018-07-30T13:16:58.463Z,4.42
2018-07-30T13:19:32.414Z,4.42
2018-07-30T13:22:06.405Z,3.98
2018-07-30T13:24:40.387Z,4.45
2018-07-30T13:27:14.528Z,4.37
2018-07-30T13:29:48.581Z,5.25
2018-07-30T13:32:22.596Z,5.22
2018-07-30T13:34:56.653Z,4.35
2018-07-30T13:37:30.514Z,5.50
2018-07-30T13:40:04.779Z,5.72
2018-07-30T13:42:38.824Z,3.92
2018-07-30T13:45:12.927Z,6.22
2018-07-30T13:47:47.041Z,4.30
2018-07-30T13:50:21.085Z,6.60
2018-07-30T13:52:55.236Z,6.05
2018-07-30T13:55:29.367Z,4.90
2018-07-30T13:58:03.651Z,6.15
2018-07-30T14:00:37.883Z,5.85
2018-07-30T14:03:11.988Z,4.80
2018-07-30T14:05:45.941Z,4.40
2018-07-30T14:08:20.266Z,5.45
2018-07-30T14:10:54.263Z,7.05
2018-07-30T14:13:28.557Z,5.33
2018-07-30T14:16:02.784Z,3.70
2018-07-30T14:18:36.592Z,4.80
2018-07-30T14:21:11.238Z,7.42
2018-07-30T14:23:45.450Z,4.55
2018-07-30T14:26:19.559Z,4.90
2018-07-30T14:28:53.756Z,4.33
2018-07-30T14:31:28.288Z,5.08
2018-07-30T14:34:02.823Z,4.97
2018-07-30T14:36:36.586Z,4.92
2018-07-30T14:39:11.028Z,4.37
2018-07-30T14:41:44.993Z,7.80
2018-07-30T14:44:19.140Z,6.22
2018-07-30T14:46:53.157Z,5.67
2018-07-30T14:49:27.031Z,6.00
2018-07-30T14:52:01.064Z,6.70
2018-07-30T14:54:35.272Z,6.15
2018-07-30T14:57:09.265Z,5.50
2018-07-30T14:59:43.451Z,6.08
2018-07-30T15:02:18.973Z,6.55
2018-07-30T15:04:53.741Z,4.17
2018-07-30T15:07:28.028Z,5.03
2018-07-30T15:10:02.392Z,5.55
2018-07-30T15:12:36.373Z,7.10
2018-07-30T15:15:10.551Z,4.65
2018-07-30T15:17:44.739Z,4.92
2018-07-30T15:20:18.731Z,9.20
2018-07-30T15:22:52.682Z,5.92
2018-07-30T15:25:26.770Z,6.20
2018-07-30T15:28:00.758Z,7.65
2018-07-30T15:30:34.778Z,6.55
2018-07-30T15:33:10.289Z,5.85
2018-07-30T15:35:44.128Z,4.45
2018-07-30T15:38:18.091Z,6.47
2018-07-30T15:40:52.117Z,4.75
2018-07-30T15:43:26.298Z,5.15
2018-07-30T15:46:00.437Z,5.22
2018-07-30T15:48:34.651Z,4.55
2018-07-30T15:51:08.768Z,6.62
2018-07-30T15:53:42.841Z,4.03
2018-07-30T15:56:17.403Z,6.28
2018-07-30T15:58:51.162Z,4.42
2018-07-30T16:01:25.740Z,5.28
2018-07-30T16:03:59.438Z,4.30
2018-07-30T16:06:34.537Z,5.00
2018-07-30T16:09:08.407Z,5.50
2018-07-30T16:11:42.291Z,5.95
2018-07-30T16:14:16.177Z,4.83
2018-07-30T16:16:50.234Z,8.70
2018-07-30T16:19:24.913Z,4.53
2018-07-30T16:21:59.218Z,5.17
2018-07-30T16:24:33.608Z,4.25
2018-07-30T16:27:07.412Z,7.05
2018-07-30T16:29:41.501Z,4.83
2018-07-30T16:32:15.672Z,6.20
2018-07-30T16:34:49.717Z,6.28
2018-07-30T16:37:24.145Z,6.00
2018-07-30T16:39:58.658Z,5.35
2018-07-30T16:42:33.046Z,5.60
2018-07-30T16:45:08.083Z,4.55
2018-07-30T16:47:42.093Z,5.55
2018-07-30T16:50:16.409Z,4.80
2018-07-30T16:52:50.603Z,4.85
2018-07-30T16:55:24.765Z,4.35
2018-07-30T16:57:59.147Z,7.75
2018-07-30T17:00:33.669Z,4.55
2018-07-30T17:03:08.153Z,4.78
2018-07-30T17:05:42.377Z,4.22
2018-07-30T17:08:17.047Z,4.92
2018-07-30T17:10:51.282Z,4.17
2018-07-30T17:13:25.476Z,4.40
2018-07-30T17:15:59.830Z,4.37
2018-07-30T17:18:34.179Z,5.17
2018-07-30T17:21:08.742Z,6.15
2018-07-30T17:23:43.082Z,5.55
2018-07-30T17:26:17.252Z,7.58
2018-07-30T17:28:51.670Z,11.05
2018-07-30T17:31:25.606Z,10.93
2018-07-30T17:33:59.962Z,9.30
2018-07-30T17:36:34.182Z,11.00
2018-07-30T17:39:09.596Z,7.67
2018-07-30T17:41:44.103Z,7.47
2018-07-30T17:44:19.346Z,5.00
2018-07-30T17:46:54.439Z,5.20
2018-07-30T17:49:29.231Z,5.53
2018-07-30T17:52:03.997Z,4.60
2018-07-30T17:54:38.360Z,9.75
2018-07-30T17:57:12.991Z,31.68
2018-07-30T17:59:47.513Z,11.48
2018-07-30T18:02:22.701Z,6.53
2018-07-30T18:04:57.024Z,5.60
2018-07-30T18:07:31.524Z,6.80
2018-07-30T18:10:06.205Z,5.40
2018-07-30T18:12:40.225Z,5.45
2018-07-30T18:15:14.641Z,5.80
2018-07-30T18:17:49.048Z,5.90
2018-07-30T18:20:23.197Z,5.55
2018-07-30T18:22:57.801Z,7.60
2018-07-30T18:25:32.105Z,7.25
2018-07-30T18:28:06.441Z,5.55
2018-07-30T18:30:40.527Z,5.95
2018-07-30T18:33:15.195Z,8.78
2018-07-30T18:35:49.363Z,30.95
2018-07-30T18:38:23.553Z,29.32
2018-07-30T18:40:57.528Z,27.20
2018-07-30T18:43:31.639Z,22.32
2018-07-30T18:46:05.621Z,17.05
2018-07-30T18:48:39.978Z,10.28
2018-07-30T18:51:13.766Z,8.50
2018-07-30T18:53:48.201Z,6.97
2018-07-30T18:56:22.181Z,8.88
2018-07-30T18:58:56.198Z,6.08
2018-07-30T19:01:30.598Z,6.37
2018-07-30T19:04:04.712Z,6.75
2018-07-30T19:06:39.672Z,5.97
2018-07-30T19:09:14.303Z,4.80
2018-07-30T19:11:48.628Z,4.75
2018-07-30T19:14:22.738Z,5.78
2018-07-30T19:16:57.070Z,5.87
2018-07-30T19:19:31.569Z,5.35
2018-07-30T19:22:05.862Z,6.22
2018-07-30T19:24:40.489Z,5.87
2018-07-30T19:27:14.530Z,5.78
2018-07-30T19:29:48.555Z,6.75
2018-07-30T19:32:22.963Z,5.47
2018-07-30T19:34:57.051Z,10.72
2018-07-30T19:37:31.016Z,7.17
2018-07-30T19:40:05.429Z,5.20
2018-07-30T19:42:40.397Z,5.15
2018-07-30T19:45:14.478Z,5.72
2018-07-30T19:47:48.618Z,6.12
2018-07-30T19:50:22.796Z,5.40
2018-07-30T19:52:56.765Z,7.28
2018-07-30T19:55:30.897Z,9.00
2018-07-30T19:58:05.648Z,6.92
2018-07-30T20:00:39.470Z,6.47
2018-07-30T20:03:13.724Z,7.53
2018-07-30T20:05:47.888Z,7.92
2018-07-30T20:08:22.313Z,6.03
2018-07-30T20:10:56.448Z,6.50
2018-07-30T20:13:30.613Z,7.72
2018-07-30T20:16:04.763Z,5.55
2018-07-30T20:18:43.402Z,11.70
2018-07-30T20:21:18.099Z,6.83
2018-07-30T20:23:52.551Z,9.68
2018-07-30T20:26:26.940Z,6.45
2018-07-30T20:29:01.183Z,7.67
2018-07-30T20:31:35.377Z,5.55
2018-07-30T20:34:10.206Z,6.80
2018-07-30T20:36:45.259Z,7.15
2018-07-30T20:39:19.644Z,5.85
2018-07-30T20:41:54.062Z,5.92
2018-07-30T20:44:28.242Z,6.10
2018-07-30T20:47:02.592Z,6.95
2018-07-30T20:49:36.866Z,10.55
2018-07-30T20:52:11.318Z,5.75
2018-07-30T20:54:45.502Z,5.87
2018-07-30T20:57:20.224Z,6.28
2018-07-30T20:59:54.383Z,7.00
2018-07-30T21:02:28.552Z,5.78
2018-07-30T21:05:02.887Z,5.80
2018-07-30T21:07:36.968Z,6.83
2018-07-30T21:10:11.088Z,7.72
2018-07-30T21:12:45.192Z,5.97
2018-07-30T21:15:19.701Z,6.30
2018-07-30T21:17:53.711Z,5.83
2018-07-30T21:20:28.277Z,9.38
2018-07-30T21:23:02.358Z,7.95
2018-07-30T21:25:36.564Z,7.60
2018-07-30T21:28:10.653Z,6.05
2018-07-30T21:30:44.692Z,8.98
2018-07-30T21:33:19.230Z,8.68
2018-07-30T21:35:53.234Z,8.05
2018-07-30T21:38:27.771Z,6.70
2018-07-30T21:41:02.221Z,7.03
2018-07-30T21:43:36.371Z,10.18
2018-07-30T21:46:10.576Z,8.13
2018-07-30T21:48:44.815Z,6.25
2018-07-30T21:51:18.880Z,7.97
2018-07-30T21:53:53.031Z,5.95
2018-07-30T21:56:27.116Z,7.30
2018-07-30T21:59:01.026Z,6.75
2018-07-30T22:01:35.454Z,5.97
2018-07-30T22:04:09.674Z,6.10
2018-07-30T22:06:44.003Z,6.58
2018-07-30T22:09:18.256Z,6.05
2018-07-30T22:11:52.651Z,6.87
2018-07-30T22:14:26.802Z,5.67
2018-07-30T22:17:00.932Z,7.87
2018-07-30T22:19:35.371Z,6.37
2018-07-30T22:22:09.472Z,7.15
2018-07-30T22:24:43.932Z,5.53
2018-07-30T22:27:18.857Z,5.58
2018-07-30T22:29:53.195Z,5.80
2018-07-30T22:32:27.846Z,6.25
2018-07-30T22:35:02.676Z,5.97
2018-07-30T22:37:37.153Z,7.03
2018-07-30T22:40:11.402Z,10.25
2018-07-30T22:42:46.317Z,6.80
2018-07-30T22:45:20.512Z,7.72
2018-07-30T22:47:55.068Z,6.05
2018-07-30T22:50:29.757Z,7.47
2018-07-30T22:53:03.817Z,6.47
2018-07-30T22:55:38.591Z,5.75
2018-07-30T22:58:12.573Z,6.53
2018-07-30T23:00:46.651Z,6.08
2018-07-30T23:03:20.816Z,5.70
2018-07-30T23:05:55.270Z,5.90
2018-07-30T23:08:29.855Z,7.00
2018-07-30T23:11:04.703Z,5.90
2018-07-30T23:13:39.216Z,6.65
2018-07-30T23:16:13.589Z,6.30
2018-07-30T23:18:48.068Z,7.97
2018-07-30T23:21:22.104Z,5.40
2018-07-30T23:23:56.067Z,5.70
2018-07-30T23:26:30.472Z,5.80
2018-07-30T23:29:04.960Z,5.50
2018-07-30T23:31:39.135Z,7.33
2018-07-30T23:34:13.475Z,6.75
2018-07-30T23:36:47.920Z,5.40
2018-07-30T23:39:21.915Z,5.75
2018-07-30T23:41:55.816Z,5.53
2018-07-30T23:44:30.033Z,5.75
2018-07-30T23:47:04.226Z,6.65
2018-07-30T23:49:38.835Z,7.05
2018-07-30T23:52:12.696Z,5.10
2018-07-30T23:54:46.863Z,5.83
2018-07-30T23:57:21.048Z,5.45
2018-07-30T23:59:55.223Z,5.78
